createdAt,value
2022-08-25T00:01:27.025Z,9.60
2022-08-25T00:04:03.289Z,8.30
2022-08-25T00:06:35.361Z,9.80
2022-08-25T00:09:08.501Z,8.90
2022-08-25T00:11:44.093Z,9.60
2022-08-25T00:14:19.244Z,9.10
2022-08-25T00:16:51.620Z,9.60
2022-08-25T00:19:28.976Z,9.10
2022-08-25T00:22:01.565Z,9.40
2022-08-25T00:24:33.430Z,9.60
2022-08-25T00:27:06.025Z,9.20
2022-08-25T00:29:38.505Z,9.40
2022-08-25T00:32:12.096Z,9.80
2022-08-25T00:34:43.919Z,9.40
2022-08-25T00:37:16.410Z,9.40
2022-08-25T00:39:48.756Z,9.60
2022-08-25T00:42:22.179Z,9.30
2022-08-25T00:44:54.366Z,10.30
2022-08-25T00:47:26.564Z,10.20
2022-08-25T00:50:02.670Z,9.00
2022-08-25T00:52:44.567Z,10.60
2022-08-25T00:55:20.000Z,9.00
2022-08-25T00:57:58.809Z,9.80
2022-08-25T01:00:34.913Z,10.00
2022-08-25T01:03:11.268Z,9.80
2022-08-25T01:05:44.752Z,10.30
2022-08-25T01:08:22.089Z,10.10
2022-08-25T01:10:54.279Z,10.50
2022-08-25T01:13:33.611Z,10.20
2022-08-25T01:16:06.324Z,10.00
2022-08-25T01:18:51.419Z,9.30
2022-08-25T01:21:27.250Z,10.10
2022-08-25T01:24:01.632Z,10.00
2022-08-25T01:26:35.868Z,10.20
2022-08-25T01:29:22.690Z,9.70
2022-08-25T01:31:58.046Z,9.80
2022-08-25T01:34:36.115Z,10.70
2022-08-25T01:37:08.300Z,10.40
2022-08-25T01:39:45.057Z,9.70
2022-08-25T01:42:25.642Z,10.70
2022-08-25T01:44:59.614Z,11.10
2022-08-25T01:47:32.063Z,11.00
2022-08-25T01:50:04.075Z,11.20
2022-08-25T01:52:39.031Z,10.90
2022-08-25T01:55:12.496Z,10.50
2022-08-25T01:57:44.510Z,10.10
2022-08-25T02:00:25.676Z,10.40
2022-08-25T02:02:57.628Z,11.10
2022-08-25T02:05:29.578Z,10.40
2022-08-25T02:08:05.150Z,9.60
2022-08-25T02:10:40.575Z,10.90
2022-08-25T02:13:12.953Z,10.90
2022-08-25T02:15:52.048Z,9.50
2022-08-25T02:18:24.121Z,9.80
2022-08-25T02:20:58.614Z,9.80
2022-08-25T02:23:30.569Z,9.80
2022-08-25T02:26:02.524Z,9.50
2022-08-25T02:28:34.467Z,8.80
2022-08-25T02:31:10.415Z,9.20
2022-08-25T02:33:42.421Z,8.80
2022-08-25T02:36:14.567Z,8.90
2022-08-25T02:38:46.644Z,8.10
2022-08-25T02:41:27.785Z,8.40
2022-08-25T02:44:05.052Z,9.70
2022-08-25T02:46:37.884Z,9.40
2022-08-25T02:49:09.828Z,8.80
2022-08-25T02:51:43.305Z,8.60
2022-08-25T02:54:15.056Z,8.30
2022-08-25T02:56:47.823Z,9.10
2022-08-25T02:59:19.954Z,9.30
2022-08-25T03:01:54.349Z,9.60
2022-08-25T03:04:26.272Z,9.80
2022-08-25T03:06:58.226Z,9.10
2022-08-25T03:09:30.451Z,9.80
2022-08-25T03:12:09.454Z,9.60
2022-08-25T03:14:42.130Z,8.60
2022-08-25T03:17:15.242Z,9.10
2022-08-25T03:19:47.144Z,9.30
2022-08-25T03:22:21.554Z,9.60
2022-08-25T03:25:13.362Z,9.10
2022-08-25T03:27:45.324Z,9.30
2022-08-25T03:30:17.688Z,9.60
2022-08-25T03:32:51.447Z,8.80
2022-08-25T03:35:23.612Z,9.50
2022-08-25T03:37:58.515Z,9.90
2022-08-25T03:40:30.586Z,9.30
2022-08-25T03:43:09.977Z,9.90
2022-08-25T03:45:45.156Z,9.60
2022-08-25T03:48:18.135Z,12.30
2022-08-25T03:50:54.509Z,10.80
2022-08-25T03:53:27.123Z,11.70
2022-08-25T03:55:59.008Z,11.70
2022-08-25T03:58:30.849Z,11.10
2022-08-25T04:01:02.735Z,12.00
2022-08-25T04:03:35.528Z,12.30
2022-08-25T04:06:10.386Z,13.40
2022-08-25T04:08:42.546Z,13.00
2022-08-25T04:11:18.026Z,13.20
2022-08-25T04:13:51.310Z,14.30
2022-08-25T04:16:25.418Z,13.40
2022-08-25T04:18:58.750Z,13.60
2022-08-25T04:21:31.539Z,13.90
2022-08-25T04:24:04.369Z,13.60
2022-08-25T04:26:38.395Z,14.20
2022-08-25T04:29:12.038Z,13.70
2022-08-25T04:31:47.028Z,14.20
2022-08-25T04:34:29.741Z,13.50
2022-08-25T04:37:06.429Z,13.90
2022-08-25T04:39:38.358Z,12.60
2022-08-25T04:42:10.512Z,13.40
2022-08-25T04:44:43.378Z,14.00
2022-08-25T04:47:15.181Z,15.30
2022-08-25T04:49:47.529Z,14.90
2022-08-25T04:52:19.641Z,15.80
2022-08-25T04:54:51.548Z,15.30
2022-08-25T04:57:23.436Z,15.60
2022-08-25T04:59:55.780Z,16.20
2022-08-25T05:02:28.052Z,14.70
2022-08-25T05:05:00.937Z,14.80
2022-08-25T05:07:32.841Z,13.20
2022-08-25T05:10:05.073Z,14.10
2022-08-25T05:12:36.885Z,16.70
2022-08-25T05:15:25.621Z,16.20
2022-08-25T05:17:57.854Z,16.20
2022-08-25T05:20:32.799Z,15.60
2022-08-25T05:23:04.756Z,16.40
2022-08-25T05:25:38.078Z,16.90
2022-08-25T05:28:10.096Z,16.80
2022-08-25T05:30:46.224Z,17.00
2022-08-25T05:33:18.549Z,15.60
2022-08-25T05:35:50.511Z,17.00
2022-08-25T05:38:23.215Z,17.10
2022-08-25T05:41:01.852Z,15.10
2022-08-25T05:43:34.702Z,14.30
2022-08-25T05:46:07.507Z,13.10
2022-08-25T05:48:40.161Z,13.40
2022-08-25T05:51:13.426Z,12.00
2022-08-25T05:53:47.360Z,12.10
2022-08-25T05:56:19.939Z,11.10
2022-08-25T05:58:52.089Z,10.20
2022-08-25T06:01:47.258Z,11.30
2022-08-25T06:04:21.059Z,10.80
2022-08-25T06:06:55.041Z,11.40
2022-08-25T06:09:27.106Z,12.00
2022-08-25T06:12:01.299Z,11.00
2022-08-25T06:14:33.711Z,10.20
2022-08-25T06:17:05.921Z,11.40
2022-08-25T06:19:38.176Z,10.70
2022-08-25T06:22:13.288Z,9.90
2022-08-25T06:24:45.219Z,8.80
2022-08-25T06:27:17.761Z,8.60
2022-08-25T06:29:50.010Z,8.00
2022-08-25T06:32:27.051Z,8.50
2022-08-25T06:34:59.183Z,8.30
2022-08-25T06:37:32.090Z,8.60
2022-08-25T06:40:05.286Z,7.70
2022-08-25T06:42:39.757Z,7.20
2022-08-25T06:45:13.101Z,7.10
2022-08-25T06:47:46.635Z,6.90
2022-08-25T06:50:18.578Z,6.50
2022-08-25T06:52:51.892Z,6.80
2022-08-25T06:55:23.960Z,6.50
2022-08-25T06:57:56.707Z,7.00
2022-08-25T07:00:30.636Z,6.30
2022-08-25T07:03:05.069Z,6.30
2022-08-25T07:05:43.811Z,5.90
2022-08-25T07:08:16.083Z,6.20
2022-08-25T07:10:48.474Z,6.40
2022-08-25T07:13:21.239Z,5.60
2022-08-25T07:15:56.346Z,6.10
2022-08-25T07:18:28.340Z,5.80
2022-08-25T07:21:00.484Z,5.70
2022-08-25T07:23:32.429Z,6.10
2022-08-25T07:26:36.321Z,5.70
2022-08-25T07:29:08.649Z,6.00
2022-08-25T07:31:40.894Z,5.20
2022-08-25T07:34:31.399Z,6.30
2022-08-25T07:37:05.169Z,5.30
2022-08-25T07:39:37.478Z,5.70
2022-08-25T07:42:12.251Z,5.30
2022-08-25T07:44:44.247Z,5.90
2022-08-25T07:47:16.924Z,5.10
2022-08-25T07:49:55.153Z,5.00
2022-08-25T07:52:27.096Z,6.10
2022-08-25T07:54:58.938Z,5.60
2022-08-25T07:57:31.142Z,5.70
2022-08-25T08:00:03.168Z,5.90
2022-08-25T08:02:40.565Z,5.40
2022-08-25T08:05:15.087Z,6.00
2022-08-25T08:07:47.080Z,5.30
2022-08-25T08:13:18.635Z,5.40
2022-08-25T08:15:51.131Z,5.80
2022-08-25T08:18:24.556Z,5.90
2022-08-25T08:20:58.388Z,5.80
2022-08-25T08:23:31.507Z,6.00
2022-08-25T08:26:03.557Z,5.90
2022-08-25T08:28:36.356Z,5.80
2022-08-25T08:31:10.569Z,5.00
2022-08-25T08:33:42.784Z,5.90
2022-08-25T08:36:15.159Z,5.50
2022-08-25T08:38:47.914Z,4.90
2022-08-25T08:42:17.263Z,5.80
2022-08-25T08:45:17.429Z,5.70
2022-08-25T08:48:02.028Z,6.30
2022-08-25T08:50:45.670Z,6.00
2022-08-25T08:53:25.999Z,5.80
2022-08-25T08:56:02.408Z,5.60
2022-08-25T08:58:44.030Z,6.00
2022-08-25T09:01:20.369Z,6.00
2022-08-25T09:03:59.141Z,5.80
2022-08-25T09:06:39.156Z,5.70
2022-08-25T09:09:13.362Z,6.50
2022-08-25T09:12:01.049Z,6.20
2022-08-25T09:14:46.992Z,6.10
2022-08-25T09:17:42.994Z,6.00
2022-08-25T09:20:54.477Z,5.70
2022-08-25T09:23:41.102Z,5.50
2022-08-25T09:26:27.464Z,6.10
2022-08-25T09:29:07.443Z,5.50
2022-08-25T09:31:51.827Z,5.60
2022-08-25T09:34:27.350Z,5.90
2022-08-25T09:37:08.478Z,5.20
2022-08-25T09:39:42.143Z,5.40
2022-08-25T09:42:14.032Z,4.80
2022-08-25T09:44:48.435Z,5.00
2022-08-25T09:47:23.391Z,5.00
2022-08-25T09:50:01.103Z,5.90
2022-08-25T09:52:38.546Z,5.40
2022-08-25T09:57:58.455Z,4.50
2022-08-25T10:00:33.710Z,4.60
2022-08-25T10:03:15.904Z,4.50
2022-08-25T10:06:05.763Z,4.60
2022-08-25T10:08:40.384Z,4.70
2022-08-25T10:11:15.443Z,5.50
2022-08-25T10:13:51.489Z,5.30
2022-08-25T10:16:33.621Z,5.70
2022-08-25T10:19:11.207Z,5.40
2022-08-25T10:21:44.859Z,5.10
2022-08-25T10:24:17.055Z,5.50
2022-08-25T10:27:02.293Z,5.40
2022-08-25T10:29:50.828Z,4.80
2022-08-25T10:32:35.128Z,4.80
2022-08-25T10:35:13.327Z,4.90
2022-08-25T10:37:58.285Z,5.30
2022-08-25T10:40:43.794Z,5.80
2022-08-25T10:43:26.523Z,6.10
2022-08-25T10:46:12.275Z,6.30
2022-08-25T10:48:59.368Z,5.30
2022-08-25T10:51:51.101Z,5.50
2022-08-25T10:54:39.999Z,5.00
2022-08-25T10:57:22.514Z,5.20
2022-08-25T11:00:10.361Z,5.00
2022-08-25T11:03:01.360Z,5.30
2022-08-25T11:05:37.479Z,5.30
2022-08-25T11:08:15.626Z,5.30
2022-08-25T11:10:53.085Z,5.10
2022-08-25T11:13:34.297Z,5.90
2022-08-25T11:16:17.527Z,5.20
2022-08-25T11:18:57.440Z,5.90
2022-08-25T11:21:39.937Z,5.90
2022-08-25T11:24:32.175Z,6.20
2022-08-25T11:27:15.899Z,5.60
2022-08-25T11:30:00.096Z,5.60
2022-08-25T11:32:36.052Z,6.30
2022-08-25T11:35:13.514Z,6.50
2022-08-25T11:37:58.868Z,6.20
2022-08-25T11:40:51.377Z,7.10
2022-08-25T11:43:40.972Z,6.10
2022-08-25T11:46:27.848Z,6.30
2022-08-25T11:49:31.744Z,6.70
2022-08-25T11:52:04.498Z,5.90
2022-08-25T11:54:43.938Z,6.50
2022-08-25T11:58:40.618Z,6.80
2022-08-25T12:01:53.488Z,6.10
2022-08-25T12:04:44.813Z,6.50
2022-08-25T12:08:12.531Z,6.70
2022-08-25T12:11:16.084Z,6.40
2022-08-25T12:13:50.834Z,6.60
2022-08-25T12:16:44.520Z,6.10
2022-08-25T12:19:49.689Z,6.30
2022-08-25T12:22:55.437Z,7.10
2022-08-25T12:25:52.052Z,6.20
2022-08-25T12:28:47.229Z,6.20
2022-08-25T12:31:48.684Z,6.10
2022-08-25T12:38:52.045Z,5.80
2022-08-25T12:45:45.423Z,6.20
2022-08-25T12:48:43.440Z,5.70
2022-08-25T12:51:21.499Z,6.20
2022-08-25T12:53:58.494Z,6.40
2022-08-25T12:56:47.692Z,7.20
2022-08-25T12:59:24.037Z,6.50
2022-08-25T13:02:23.398Z,6.90
2022-08-25T13:05:28.298Z,6.00
2022-08-25T13:08:37.515Z,6.90
2022-08-25T13:11:23.131Z,6.00
2022-08-25T13:14:00.480Z,6.50
2022-08-25T13:16:33.955Z,6.40
2022-08-25T13:19:19.365Z,6.60
2022-08-25T13:21:54.610Z,7.30
2022-08-25T13:24:29.768Z,6.70
2022-08-25T13:27:04.493Z,6.30
2022-08-25T13:29:40.881Z,6.70
2022-08-25T13:32:17.635Z,6.40
2022-08-25T13:34:52.595Z,6.70
2022-08-25T13:37:31.337Z,6.50
2022-08-25T13:40:18.011Z,6.90
2022-08-25T13:42:56.085Z,6.30
2022-08-25T13:45:32.527Z,6.10
2022-08-25T13:48:22.628Z,6.20
2022-08-25T13:51:07.432Z,6.30
2022-08-25T13:53:41.747Z,7.00
2022-08-25T13:56:24.030Z,6.80
2022-08-25T13:59:00.273Z,6.60
2022-08-25T14:01:48.803Z,7.10
2022-08-25T14:04:29.641Z,6.80
2022-08-25T14:07:19.570Z,5.80
2022-08-25T14:09:55.154Z,6.50
2022-08-25T14:12:44.784Z,6.50
2022-08-25T14:15:33.397Z,6.50
2022-08-25T14:18:08.896Z,6.70
2022-08-25T14:20:50.541Z,6.40
2022-08-25T14:23:26.672Z,6.50
2022-08-25T14:26:03.633Z,7.00
2022-08-25T14:28:43.452Z,6.30
2022-08-25T14:31:20.092Z,7.10
2022-08-25T14:33:56.525Z,6.80
2022-08-25T14:36:30.290Z,6.80
2022-08-25T14:39:05.994Z,6.60
2022-08-25T14:41:47.362Z,7.00
2022-08-25T14:44:25.317Z,6.30
2022-08-25T14:46:59.875Z,7.50
2022-08-25T14:49:34.884Z,6.70
2022-08-25T14:52:12.285Z,6.80
2022-08-25T14:54:44.958Z,6.10
2022-08-25T14:57:18.405Z,6.70
2022-08-25T14:59:50.414Z,7.00
2022-08-25T15:02:29.643Z,6.40
2022-08-25T15:05:05.989Z,6.20
2022-08-25T15:07:55.670Z,6.30
2022-08-25T15:10:27.668Z,8.10
2022-08-25T15:12:59.670Z,6.00
2022-08-25T15:15:33.042Z,6.00
2022-08-25T15:18:05.707Z,6.80
2022-08-25T15:20:38.207Z,6.60
2022-08-25T15:23:10.853Z,6.90
2022-08-25T15:25:52.996Z,6.60
2022-08-25T15:28:26.627Z,7.10
2022-08-25T15:30:58.480Z,7.20
2022-08-25T15:33:31.228Z,6.40
2022-08-25T15:36:03.321Z,6.50
2022-08-25T15:38:35.154Z,7.20
2022-08-25T15:41:08.421Z,7.40
2022-08-25T15:43:43.286Z,6.80
2022-08-25T15:46:20.260Z,6.50
2022-08-25T15:48:52.388Z,6.70
2022-08-25T15:51:24.175Z,6.90
2022-08-25T15:53:55.963Z,6.20
2022-08-25T15:56:27.882Z,6.70
2022-08-25T15:58:59.847Z,7.30
2022-08-25T16:01:31.737Z,7.80
2022-08-25T16:04:03.717Z,6.80
2022-08-25T16:06:35.695Z,7.50
2022-08-25T16:09:08.706Z,6.40
2022-08-25T16:11:43.199Z,7.00
2022-08-25T16:14:15.245Z,7.00
2022-08-25T16:16:47.741Z,7.20
2022-08-25T16:19:19.661Z,8.10
2022-08-25T16:21:51.482Z,7.00
2022-08-25T16:24:23.330Z,6.80
2022-08-25T16:27:00.325Z,7.40
2022-08-25T16:29:45.709Z,7.60
2022-08-25T16:32:19.247Z,5.80
2022-08-25T16:34:51.026Z,6.80
2022-08-25T16:37:23.128Z,7.00
2022-08-25T16:39:57.126Z,6.60
2022-08-25T16:42:30.018Z,6.80
2022-08-25T16:45:02.204Z,7.30
2022-08-25T16:47:40.018Z,7.00
2022-08-25T16:50:19.408Z,6.30
2022-08-25T16:53:09.950Z,6.20
2022-08-25T16:55:41.978Z,7.00
2022-08-25T16:58:16.527Z,6.70
2022-08-25T17:00:51.627Z,6.10
2022-08-25T17:03:27.088Z,6.10
2022-08-25T17:06:01.642Z,6.80
2022-08-25T17:08:33.911Z,6.70
2022-08-25T17:11:14.167Z,6.50
2022-08-25T17:13:49.727Z,6.60
2022-08-25T17:16:24.895Z,6.40
2022-08-25T17:18:57.611Z,6.90
2022-08-25T17:21:33.185Z,6.60
2022-08-25T17:24:06.655Z,6.90
2022-08-25T17:26:41.175Z,6.60
2022-08-25T17:29:13.340Z,7.00
2022-08-25T17:31:48.497Z,7.10
2022-08-25T17:34:23.253Z,6.90
2022-08-25T17:36:55.713Z,6.80
2022-08-25T17:39:28.633Z,6.60
2022-08-25T17:42:02.664Z,6.70
2022-08-25T17:44:34.528Z,7.40
2022-08-25T17:47:10.147Z,7.80
2022-08-25T17:49:42.059Z,6.80
2022-08-25T17:52:15.687Z,7.40
2022-08-25T17:54:47.564Z,7.60
2022-08-25T17:57:20.593Z,8.00
2022-08-25T17:59:55.225Z,9.10
2022-08-25T18:02:28.330Z,8.00
2022-08-25T18:05:00.794Z,7.60
2022-08-25T18:07:32.839Z,7.20
2022-08-25T18:10:05.611Z,7.10
2022-08-25T18:12:41.178Z,6.80
2022-08-25T18:15:16.010Z,7.10
2022-08-25T18:17:48.216Z,6.90
2022-08-25T18:20:21.771Z,7.20
2022-08-25T18:22:55.485Z,7.50
2022-08-25T18:25:30.968Z,7.50
2022-08-25T18:28:03.237Z,7.60
2022-08-25T18:30:35.232Z,7.40
2022-08-25T18:33:08.198Z,8.50
2022-08-25T18:35:40.488Z,8.50
2022-08-25T18:38:31.129Z,9.20
2022-08-25T18:41:06.444Z,8.70
2022-08-25T18:43:38.804Z,8.70
2022-08-25T18:46:12.163Z,7.80
2022-08-25T18:48:45.885Z,8.80
2022-08-25T18:51:18.345Z,9.80
2022-08-25T18:54:00.902Z,8.60
2022-08-25T18:56:34.678Z,8.90
2022-08-25T18:59:09.189Z,8.30
2022-08-25T19:01:44.854Z,9.00
2022-08-25T19:04:17.546Z,9.50
2022-08-25T19:06:49.428Z,10.60
2022-08-25T19:09:23.836Z,11.50
2022-08-25T19:11:55.836Z,9.50
2022-08-25T19:14:27.927Z,9.10
2022-08-25T19:17:01.029Z,8.70
2022-08-25T19:19:33.208Z,7.50
2022-08-25T19:22:08.509Z,9.10
2022-08-25T19:24:49.136Z,8.90
2022-08-25T19:27:21.694Z,9.50
2022-08-25T19:29:54.029Z,9.60
2022-08-25T19:32:26.509Z,9.80
2022-08-25T19:35:00.485Z,9.00
2022-08-25T19:37:32.683Z,10.00
2022-08-25T19:40:11.732Z,9.90
2022-08-25T19:42:43.858Z,9.80
2022-08-25T19:45:16.769Z,10.90
2022-08-25T19:47:49.530Z,11.40
2022-08-25T19:50:25.844Z,10.90
2022-08-25T19:52:58.213Z,10.90
2022-08-25T19:55:30.291Z,10.20
2022-08-25T19:58:03.055Z,11.60
2022-08-25T20:00:40.545Z,13.30
2022-08-25T20:03:12.787Z,11.80
2022-08-25T20:05:45.096Z,12.00
2022-08-25T20:08:17.838Z,12.20
2022-08-25T20:11:02.887Z,13.00
2022-08-25T20:13:34.693Z,13.70
2022-08-25T20:16:07.825Z,13.30
2022-08-25T20:18:39.977Z,12.70
2022-08-25T20:21:12.959Z,13.00
2022-08-25T20:24:02.841Z,12.90
2022-08-25T20:26:35.019Z,13.00
2022-08-25T20:29:06.960Z,13.10
2022-08-25T20:31:39.884Z,14.70
2022-08-25T20:34:11.796Z,14.30
2022-08-25T20:36:50.251Z,15.20
2022-08-25T20:39:22.925Z,13.80
2022-08-25T20:41:54.955Z,12.10
2022-08-25T20:44:33.684Z,12.60
2022-08-25T20:47:10.291Z,12.00
2022-08-25T20:49:43.832Z,13.30
2022-08-25T20:52:16.889Z,12.40
2022-08-25T20:54:51.047Z,12.50
2022-08-25T20:57:26.178Z,14.90
2022-08-25T21:00:00.195Z,12.70
2022-08-25T21:02:33.079Z,11.80
2022-08-25T21:05:09.026Z,11.40
2022-08-25T21:07:41.558Z,10.50
2022-08-25T21:10:15.504Z,11.80
2022-08-25T21:12:53.284Z,11.20
2022-08-25T21:15:25.474Z,11.90
2022-08-25T21:17:57.695Z,11.10
2022-08-25T21:20:29.600Z,11.00
2022-08-25T21:23:03.172Z,10.90
2022-08-25T21:25:42.710Z,10.50
2022-08-25T21:28:15.121Z,11.00
2022-08-25T21:30:47.422Z,12.20
2022-08-25T21:33:19.420Z,10.70
2022-08-25T21:35:58.080Z,10.50
2022-08-25T21:38:30.331Z,10.40
2022-08-25T21:41:08.557Z,10.40
2022-08-25T21:43:41.523Z,10.40
2022-08-25T21:46:20.263Z,10.90
2022-08-25T21:48:53.096Z,11.20
2022-08-25T21:51:27.191Z,11.30
2022-08-25T21:54:11.140Z,10.70
2022-08-25T21:56:47.857Z,10.80
2022-08-25T21:59:22.378Z,11.10
2022-08-25T22:01:57.478Z,11.30
2022-08-25T22:04:31.219Z,12.00
2022-08-25T22:07:03.411Z,11.00
2022-08-25T22:09:35.586Z,10.90
2022-08-25T22:12:10.158Z,12.00
2022-08-25T22:14:42.849Z,12.40
2022-08-25T22:17:17.056Z,11.20
2022-08-25T22:19:53.769Z,11.70
2022-08-25T22:22:25.981Z,11.20
2022-08-25T22:24:58.776Z,10.40
2022-08-25T22:27:31.858Z,10.90
2022-08-25T22:30:11.466Z,9.90
2022-08-25T22:32:45.383Z,10.50
2022-08-25T22:35:17.525Z,10.70
2022-08-25T22:37:51.483Z,10.90
2022-08-25T22:40:30.108Z,11.20
2022-08-25T22:43:01.932Z,11.40
2022-08-25T22:45:34.061Z,10.50
2022-08-25T22:48:07.326Z,10.60
2022-08-25T22:50:43.157Z,10.60
2022-08-25T22:53:18.565Z,10.50
2022-08-25T22:55:52.162Z,10.20
2022-08-25T22:58:31.026Z,10.10
2022-08-25T23:01:05.153Z,11.20
2022-08-25T23:03:37.068Z,10.30
2022-08-25T23:06:25.023Z,10.90
2022-08-25T23:08:58.597Z,9.90
2022-08-25T23:11:31.373Z,9.70
2022-08-25T23:14:05.679Z,9.90
2022-08-25T23:16:38.044Z,10.10
2022-08-25T23:19:10.635Z,10.00
2022-08-25T23:22:00.964Z,10.00
2022-08-25T23:24:33.460Z,10.30
2022-08-25T23:27:08.616Z,9.70
2022-08-25T23:29:42.906Z,10.70
2022-08-25T23:32:17.515Z,10.70
2022-08-25T23:34:50.170Z,9.80
2022-08-25T23:37:21.980Z,9.50
2022-08-25T23:39:54.409Z,9.90
2022-08-25T23:42:27.329Z,9.90
2022-08-25T23:44:59.120Z,9.70
2022-08-25T23:47:31.084Z,9.30
2022-08-25T23:50:03.088Z,9.50
2022-08-25T23:52:37.590Z,9.40
2022-08-25T23:55:11.660Z,9.20
2022-08-25T23:57:43.574Z,9.10
